createdAt,value
2023-11-22T00:01:35.136Z,65.51
2023-11-22T00:04:02.451Z,65.71
2023-11-22T00:06:30.308Z,66.18
2023-11-22T00:08:56.880Z,65.79
2023-11-22T00:11:23.507Z,65.10
2023-11-22T00:13:50.287Z,65.00
2023-11-22T00:16:16.957Z,65.23
2023-11-22T00:18:43.692Z,64.49
2023-11-22T00:21:10.340Z,63.59
2023-11-22T00:23:37.174Z,63.49
2023-11-22T00:26:03.917Z,63.69
2023-11-22T00:28:30.568Z,63.01
2023-11-22T00:30:57.496Z,62.94
2023-11-22T00:33:24.345Z,62.96
2023-11-22T00:35:50.988Z,62.12
2023-11-22T00:38:17.657Z,62.83
2023-11-22T00:40:44.354Z,63.67
2023-11-22T00:43:10.961Z,62.96
2023-11-22T00:45:37.760Z,62.54
2023-11-22T00:48:04.571Z,62.47
2023-11-22T00:50:31.241Z,62.34
2023-11-22T00:52:57.942Z,63.30
2023-11-22T00:55:24.615Z,63.71
2023-11-22T00:57:51.241Z,63.59
2023-11-22T01:00:17.861Z,63.71
2023-11-22T01:02:44.665Z,63.31
2023-11-22T01:05:11.389Z,63.15
2023-11-22T01:07:38.114Z,63.07
2023-11-22T01:10:04.766Z,62.49
2023-11-22T01:12:31.576Z,63.15
2023-11-22T01:14:58.365Z,62.96
2023-11-22T01:17:24.972Z,63.08
2023-11-22T01:19:51.592Z,62.49
2023-11-22T01:22:18.413Z,62.17
2023-11-22T01:24:45.227Z,62.01
2023-11-22T01:27:11.932Z,61.66
2023-11-22T01:29:38.558Z,61.48
2023-11-22T01:32:05.314Z,62.68
2023-11-22T01:34:31.973Z,61.73
2023-11-22T01:36:58.554Z,60.96
2023-11-22T01:39:25.131Z,61.39
2023-11-22T01:41:51.705Z,60.67
2023-11-22T01:44:18.284Z,60.29
2023-11-22T01:46:44.877Z,60.04
2023-11-22T01:49:11.589Z,60.92
2023-11-22T01:51:38.165Z,61.17
2023-11-22T01:54:04.724Z,61.02
2023-11-22T01:56:31.303Z,61.52
2023-11-22T01:58:59.080Z,60.73
2023-11-22T02:01:25.910Z,61.18
2023-11-22T02:03:52.649Z,61.55
2023-11-22T02:06:19.266Z,61.55
2023-11-22T02:08:45.831Z,61.02
2023-11-22T02:11:12.477Z,60.31
2023-11-22T02:13:39.041Z,61.31
2023-11-22T02:16:05.659Z,60.05
2023-11-22T02:18:32.346Z,60.48
2023-11-22T02:20:58.953Z,60.70
2023-11-22T02:23:25.598Z,60.81
2023-11-22T02:25:52.188Z,60.08
2023-11-22T02:28:18.757Z,59.69
2023-11-22T02:30:46.592Z,60.36
2023-11-22T02:33:14.663Z,59.58
2023-11-22T02:35:41.364Z,59.79
2023-11-22T02:38:07.982Z,59.91
2023-11-22T02:40:34.612Z,59.75
2023-11-22T02:43:01.165Z,59.66
2023-11-22T02:45:27.743Z,60.51
2023-11-22T02:47:54.593Z,60.08
2023-11-22T02:50:21.243Z,60.45
2023-11-22T02:52:47.856Z,60.10
2023-11-22T02:55:14.508Z,60.02
2023-11-22T02:57:41.081Z,59.96
2023-11-22T03:00:07.770Z,60.41
2023-11-22T03:02:34.635Z,60.10
2023-11-22T03:05:01.445Z,59.78
2023-11-22T03:07:28.055Z,61.11
2023-11-22T03:09:54.679Z,60.00
2023-11-22T03:12:21.289Z,60.43
2023-11-22T03:14:48.026Z,60.90
2023-11-22T03:17:14.707Z,60.83
2023-11-22T03:19:41.407Z,61.32
2023-11-22T03:22:09.614Z,60.97
2023-11-22T03:24:36.173Z,60.07
2023-11-22T03:27:02.788Z,60.18
2023-11-22T03:29:29.415Z,60.84
2023-11-22T03:31:56.015Z,60.63
2023-11-22T03:34:22.639Z,60.08
2023-11-22T03:36:49.280Z,60.29
2023-11-22T03:39:15.849Z,59.74
2023-11-22T03:41:42.430Z,60.11
2023-11-22T03:44:09.076Z,60.30
2023-11-22T03:46:35.698Z,60.75
2023-11-22T03:49:02.335Z,60.30
2023-11-22T03:51:28.925Z,60.33
2023-11-22T03:53:55.528Z,60.84
2023-11-22T03:56:22.168Z,60.71
2023-11-22T03:58:48.780Z,60.82
2023-11-22T04:01:15.446Z,60.14
2023-11-22T04:03:42.229Z,61.24
2023-11-22T04:06:09.014Z,60.50
2023-11-22T04:08:35.627Z,60.98
2023-11-22T04:11:02.328Z,60.12
2023-11-22T04:13:28.968Z,61.03
2023-11-22T04:15:56.094Z,60.53
2023-11-22T04:18:23.255Z,61.09
2023-11-22T04:20:50.172Z,60.73
2023-11-22T04:23:16.805Z,60.85
2023-11-22T04:25:43.421Z,60.37
2023-11-22T04:28:10.060Z,60.12
2023-11-22T04:30:36.661Z,60.37
2023-11-22T04:33:03.413Z,59.83
2023-11-22T04:35:30.123Z,60.06
2023-11-22T04:37:56.677Z,59.91
2023-11-22T04:40:23.265Z,59.80
2023-11-22T04:42:49.825Z,60.60
2023-11-22T04:45:16.440Z,60.93
2023-11-22T04:47:43.453Z,60.82
2023-11-22T04:50:10.288Z,61.37
2023-11-22T04:52:36.920Z,61.43
2023-11-22T04:55:03.589Z,61.49
2023-11-22T04:57:30.177Z,61.42
2023-11-22T04:59:56.785Z,61.47
2023-11-22T05:02:23.672Z,61.67
2023-11-22T05:04:50.271Z,61.24
2023-11-22T05:07:16.865Z,60.95
2023-11-22T05:09:43.517Z,61.14
2023-11-22T05:12:11.483Z,60.87
2023-11-22T05:14:38.193Z,60.31
2023-11-22T05:17:05.008Z,60.42
2023-11-22T05:19:31.626Z,60.36
2023-11-22T05:21:58.245Z,60.33
2023-11-22T05:24:24.894Z,60.74
2023-11-22T05:26:51.490Z,60.54
2023-11-22T05:29:18.132Z,60.55
2023-11-22T05:31:44.753Z,60.68
2023-11-22T05:34:11.376Z,61.26
2023-11-22T05:36:37.989Z,62.24
2023-11-22T05:39:04.548Z,61.96
2023-11-22T05:41:31.209Z,61.24
2023-11-22T05:43:57.839Z,61.31
2023-11-22T05:46:24.402Z,60.51
2023-11-22T05:48:50.986Z,60.80
2023-11-22T05:51:17.701Z,61.11
2023-11-22T05:53:44.353Z,61.09
2023-11-22T05:56:10.962Z,62.81
2023-11-22T05:58:37.551Z,62.15
2023-11-22T06:01:04.166Z,60.76
2023-11-22T06:03:30.810Z,60.78
2023-11-22T06:05:57.464Z,59.81
2023-11-22T06:08:24.090Z,60.46
2023-11-22T06:10:50.679Z,59.98
2023-11-22T06:13:17.266Z,59.24
2023-11-22T06:15:43.850Z,59.37
2023-11-22T06:18:10.497Z,59.09
2023-11-22T06:20:37.239Z,58.50
2023-11-22T06:23:03.991Z,60.46
2023-11-22T06:25:30.706Z,59.08
2023-11-22T06:27:59.500Z,59.26
2023-11-22T06:30:26.237Z,59.62
2023-11-22T06:32:52.899Z,60.23
2023-11-22T06:35:19.535Z,60.64
2023-11-22T06:37:46.173Z,60.70
2023-11-22T06:40:14.905Z,60.75
2023-11-22T06:42:41.516Z,61.65
2023-11-22T06:45:08.129Z,60.91
2023-11-22T06:47:34.850Z,61.24
2023-11-22T06:50:01.532Z,61.59
2023-11-22T06:52:28.132Z,61.10
2023-11-22T06:54:54.728Z,60.26
2023-11-22T06:57:21.330Z,60.71
2023-11-22T06:59:50.709Z,60.50
2023-11-22T07:02:17.532Z,60.77
2023-11-22T07:04:44.207Z,60.41
2023-11-22T07:07:10.781Z,60.94
2023-11-22T07:09:37.403Z,60.87
2023-11-22T07:12:03.956Z,60.80
2023-11-22T07:14:30.624Z,60.26
2023-11-22T07:16:57.644Z,60.61
2023-11-22T07:19:24.251Z,61.03
2023-11-22T07:21:50.883Z,61.18
2023-11-22T07:24:17.502Z,60.86
2023-11-22T07:26:44.197Z,60.85
2023-11-22T07:29:10.921Z,61.20
2023-11-22T07:31:39.847Z,60.35
2023-11-22T07:34:06.474Z,60.38
2023-11-22T07:36:35.089Z,60.01
2023-11-22T07:39:01.904Z,60.89
2023-11-22T07:41:28.546Z,58.99
2023-11-22T07:43:55.211Z,59.35
2023-11-22T07:46:21.954Z,58.76
2023-11-22T07:48:48.865Z,58.83
2023-11-22T07:51:15.557Z,59.42
2023-11-22T07:53:42.329Z,61.00
2023-11-22T07:56:08.979Z,60.64
2023-11-22T07:58:35.619Z,60.93
2023-11-22T08:01:02.224Z,61.32
2023-11-22T08:03:28.900Z,60.46
2023-11-22T08:05:55.661Z,61.93
2023-11-22T08:08:22.386Z,61.37
2023-11-22T08:10:48.998Z,60.61
2023-11-22T08:13:16.040Z,60.83
2023-11-22T08:15:42.801Z,60.34
2023-11-22T08:18:09.466Z,59.59
2023-11-22T08:20:36.099Z,58.65
2023-11-22T08:23:02.787Z,58.34
2023-11-22T08:25:29.456Z,56.32
2023-11-22T08:27:56.066Z,55.74
2023-11-22T08:30:22.762Z,54.52
2023-11-22T08:32:49.499Z,53.39
2023-11-22T08:35:16.203Z,49.54
2023-11-22T08:37:43.199Z,46.66
2023-11-22T08:40:09.956Z,44.52
2023-11-22T08:42:36.502Z,41.57
2023-11-22T08:45:03.397Z,40.66
2023-11-22T08:47:30.175Z,40.69
2023-11-22T08:49:56.814Z,38.56
2023-11-22T08:52:23.436Z,37.94
2023-11-22T08:54:50.165Z,39.27
2023-11-22T08:57:16.862Z,40.41
2023-11-22T08:59:43.561Z,39.52
2023-11-22T09:02:10.242Z,40.39
2023-11-22T09:04:36.850Z,40.82
2023-11-22T09:07:03.674Z,41.66
2023-11-22T09:09:30.213Z,41.12
2023-11-22T09:11:56.933Z,41.65
2023-11-22T09:14:23.638Z,42.21
2023-11-22T09:16:50.277Z,42.06
2023-11-22T09:19:16.918Z,43.48
2023-11-22T09:21:43.556Z,43.61
2023-11-22T09:24:10.171Z,43.90
2023-11-22T09:26:36.782Z,44.59
2023-11-22T09:29:03.425Z,45.58
2023-11-22T09:31:29.964Z,45.97
2023-11-22T09:33:56.578Z,47.01
2023-11-22T09:36:23.179Z,46.90
2023-11-22T09:38:49.836Z,47.91
2023-11-22T09:41:16.427Z,46.41
2023-11-22T09:43:43.193Z,47.52
2023-11-22T09:46:09.880Z,47.15
2023-11-22T09:48:36.494Z,47.40
2023-11-22T09:51:03.330Z,48.44
2023-11-22T09:53:29.915Z,47.69
2023-11-22T09:55:56.509Z,46.87
2023-11-22T09:58:23.099Z,47.33
2023-11-22T10:00:49.782Z,48.30
2023-11-22T10:03:16.558Z,48.53
2023-11-22T10:05:43.353Z,48.27
2023-11-22T10:08:10.016Z,48.84
2023-11-22T10:10:36.570Z,46.83
2023-11-22T10:13:03.144Z,47.58
2023-11-22T10:15:29.741Z,47.91
2023-11-22T10:17:56.536Z,48.11
2023-11-22T10:20:23.223Z,48.10
2023-11-22T10:22:49.822Z,47.69
2023-11-22T10:25:16.451Z,48.89
2023-11-22T10:27:43.036Z,49.02
2023-11-22T10:30:09.609Z,49.21
2023-11-22T10:32:36.345Z,48.88
2023-11-22T10:35:03.497Z,49.10
2023-11-22T10:37:30.070Z,48.55
2023-11-22T10:39:56.852Z,47.35
2023-11-22T10:42:23.542Z,45.99
2023-11-22T10:44:50.199Z,46.53
2023-11-22T10:47:16.873Z,46.33
2023-11-22T10:49:43.493Z,46.62
2023-11-22T10:52:10.083Z,44.60
2023-11-22T10:54:36.694Z,45.08
2023-11-22T10:57:03.669Z,44.63
2023-11-22T10:59:30.291Z,43.85
2023-11-22T11:01:56.978Z,44.41
2023-11-22T11:04:23.667Z,43.71
2023-11-22T11:06:50.353Z,44.15
2023-11-22T11:09:16.929Z,44.02
2023-11-22T11:11:43.634Z,45.36
2023-11-22T11:14:10.292Z,44.59
2023-11-22T11:16:36.939Z,45.06
2023-11-22T11:19:03.586Z,45.31
2023-11-22T11:21:30.702Z,44.46
2023-11-22T11:23:59.403Z,44.24
2023-11-22T11:26:26.383Z,45.02
2023-11-22T11:28:53.667Z,43.79
2023-11-22T11:31:20.761Z,43.36
2023-11-22T11:33:47.527Z,43.35
2023-11-22T11:36:15.813Z,42.56
2023-11-22T11:38:42.888Z,41.59
2023-11-22T11:41:09.764Z,42.73
2023-11-22T11:43:36.346Z,44.15
2023-11-22T11:46:02.975Z,44.77
2023-11-22T11:48:29.742Z,44.80
2023-11-22T11:50:56.529Z,44.42
2023-11-22T11:53:23.196Z,44.74
2023-11-22T11:55:49.968Z,43.76
2023-11-22T11:58:16.577Z,44.57
2023-11-22T12:00:43.185Z,44.54
2023-11-22T12:03:10.018Z,43.40
2023-11-22T12:05:36.690Z,42.45
2023-11-22T12:08:03.311Z,42.59
2023-11-22T12:10:32.915Z,42.12
2023-11-22T12:12:59.533Z,42.31
2023-11-22T12:15:26.119Z,40.46
2023-11-22T12:17:52.990Z,40.81
2023-11-22T12:20:20.634Z,40.33
2023-11-22T12:22:47.861Z,38.70
2023-11-22T12:25:14.458Z,38.54
2023-11-22T12:27:41.013Z,37.92
2023-11-22T12:30:07.724Z,38.21
2023-11-22T12:32:34.522Z,38.50
2023-11-22T12:35:01.129Z,39.89
2023-11-22T12:37:27.776Z,39.94
2023-11-22T12:39:54.391Z,39.65
2023-11-22T12:42:21.044Z,39.22
2023-11-22T12:44:47.772Z,39.71
2023-11-22T12:47:14.452Z,39.18
2023-11-22T12:49:41.067Z,38.84
2023-11-22T12:52:08.657Z,37.31
2023-11-22T12:54:35.296Z,35.65
2023-11-22T12:57:04.329Z,35.43
2023-11-22T12:59:31.326Z,34.93
2023-11-22T13:01:58.071Z,33.57
2023-11-22T13:04:25.138Z,33.56
2023-11-22T13:06:52.028Z,33.02
2023-11-22T13:09:18.615Z,33.46
2023-11-22T13:11:45.305Z,33.44
2023-11-22T13:14:12.117Z,31.69
2023-11-22T13:16:38.732Z,31.42
2023-11-22T13:19:05.403Z,31.17
2023-11-22T13:21:32.100Z,31.12
2023-11-22T13:23:58.726Z,28.92
2023-11-22T13:26:25.378Z,27.15
2023-11-22T13:28:53.571Z,27.53
2023-11-22T13:31:20.186Z,25.84
2023-11-22T13:33:46.777Z,24.53
2023-11-22T13:36:13.366Z,24.42
2023-11-22T13:38:40.015Z,23.42
2023-11-22T13:41:06.756Z,22.50
2023-11-22T13:43:33.469Z,23.40
2023-11-22T13:46:00.136Z,23.12
2023-11-22T13:48:27.040Z,22.25
2023-11-22T13:50:53.761Z,23.26
2023-11-22T13:53:20.434Z,23.67
2023-11-22T13:55:47.119Z,23.77
2023-11-22T13:58:13.832Z,24.32
2023-11-22T14:00:40.373Z,25.28
2023-11-22T14:03:07.871Z,25.91
2023-11-22T14:05:35.217Z,27.56
2023-11-22T14:08:01.926Z,26.68
2023-11-22T14:10:28.510Z,26.76
2023-11-22T14:12:55.127Z,27.08
2023-11-22T14:15:21.769Z,26.07
2023-11-22T14:17:48.406Z,26.70
2023-11-22T14:20:16.721Z,25.70
2023-11-22T14:22:44.317Z,26.80
2023-11-22T14:25:11.009Z,28.84
2023-11-22T14:27:37.758Z,28.14
2023-11-22T14:30:04.400Z,29.13
2023-11-22T14:32:30.976Z,31.08
2023-11-22T14:34:57.649Z,32.32
2023-11-22T14:37:24.260Z,31.78
2023-11-22T14:39:50.895Z,31.06
2023-11-22T14:42:17.525Z,31.40
2023-11-22T14:44:44.212Z,32.67
2023-11-22T14:47:10.795Z,32.04
2023-11-22T14:49:43.822Z,32.31
2023-11-22T14:52:14.017Z,33.25
2023-11-22T14:54:40.670Z,38.72
2023-11-22T14:57:07.291Z,41.80
2023-11-22T14:59:33.915Z,44.34
2023-11-22T15:02:00.583Z,45.98
2023-11-22T15:04:27.221Z,46.14
2023-11-22T15:06:53.830Z,47.08
2023-11-22T15:09:20.432Z,47.88
2023-11-22T15:11:47.102Z,48.48
2023-11-22T15:14:13.709Z,50.68
2023-11-22T15:16:40.349Z,50.09
2023-11-22T15:19:07.034Z,48.60
2023-11-22T15:21:33.596Z,49.18
2023-11-22T15:24:00.247Z,49.81
2023-11-22T15:26:26.855Z,49.68
2023-11-22T15:28:53.420Z,50.59
2023-11-22T15:31:20.112Z,50.94
2023-11-22T15:33:46.849Z,50.75
2023-11-22T15:36:13.517Z,48.93
2023-11-22T15:38:40.309Z,45.74
2023-11-22T15:41:12.657Z,45.15
2023-11-22T15:43:43.008Z,45.37
2023-11-22T15:46:09.594Z,46.87
2023-11-22T15:48:36.321Z,49.64
2023-11-22T15:51:03.021Z,51.33
2023-11-22T15:53:29.679Z,51.38
2023-11-22T15:55:56.300Z,54.12
2023-11-22T15:58:22.970Z,54.09
2023-11-22T16:00:51.548Z,55.72
2023-11-22T16:03:18.349Z,56.04
2023-11-22T16:05:45.197Z,56.16
2023-11-22T16:08:11.755Z,56.44
2023-11-22T16:10:38.352Z,56.96
2023-11-22T16:13:05.001Z,57.65
2023-11-22T16:15:31.594Z,58.07
2023-11-22T16:17:58.271Z,56.30
2023-11-22T16:20:25.087Z,56.49
2023-11-22T16:22:54.680Z,57.59
2023-11-22T16:25:22.350Z,57.43
2023-11-22T16:27:48.952Z,57.14
2023-11-22T16:30:15.536Z,57.39
2023-11-22T16:32:42.242Z,58.03
2023-11-22T16:35:08.925Z,56.34
2023-11-22T16:37:35.623Z,57.12
2023-11-22T16:40:02.357Z,56.92
2023-11-22T16:42:28.954Z,58.47
2023-11-22T16:44:55.552Z,58.06
2023-11-22T16:47:22.152Z,57.68
2023-11-22T16:49:48.708Z,56.88
2023-11-22T16:52:15.315Z,56.23
2023-11-22T16:54:42.256Z,57.22
2023-11-22T16:57:08.871Z,57.20
2023-11-22T16:59:35.501Z,59.21
2023-11-22T17:02:02.100Z,58.27
2023-11-22T17:04:28.950Z,57.81
2023-11-22T17:06:55.557Z,58.07
2023-11-22T17:09:22.152Z,57.73
2023-11-22T17:11:48.763Z,58.49
2023-11-22T17:14:15.417Z,57.74
2023-11-22T17:16:42.045Z,57.26
2023-11-22T17:19:08.696Z,58.56
2023-11-22T17:21:35.308Z,57.56
2023-11-22T17:24:01.947Z,58.28
2023-11-22T17:26:28.702Z,58.62
2023-11-22T17:28:55.359Z,57.49
2023-11-22T17:31:22.067Z,57.86
2023-11-22T17:33:48.824Z,59.11
2023-11-22T17:36:19.056Z,58.40
2023-11-22T17:38:49.404Z,58.92
2023-11-22T17:41:16.514Z,57.39
2023-11-22T17:43:43.171Z,56.80
2023-11-22T17:46:10.789Z,56.65
2023-11-22T17:48:40.453Z,56.50
2023-11-22T17:51:07.156Z,56.65
2023-11-22T17:53:33.800Z,58.10
2023-11-22T17:56:00.431Z,58.70
2023-11-22T17:58:26.988Z,57.96
2023-11-22T18:00:53.588Z,57.29
2023-11-22T18:03:20.347Z,56.67
2023-11-22T18:05:47.062Z,58.03
2023-11-22T18:08:13.700Z,56.35
2023-11-22T18:10:46.411Z,57.49
2023-11-22T18:13:15.927Z,58.17
2023-11-22T18:15:43.551Z,58.13
2023-11-22T18:18:10.266Z,57.43
2023-11-22T18:20:36.952Z,57.56
2023-11-22T18:23:07.285Z,57.77
2023-11-22T18:25:37.105Z,57.76
2023-11-22T18:28:03.699Z,57.96
2023-11-22T18:30:30.292Z,57.92
2023-11-22T18:32:56.957Z,57.61
2023-11-22T18:35:23.765Z,57.74
2023-11-22T18:37:50.372Z,58.62
2023-11-22T18:40:18.267Z,59.27
2023-11-22T18:45:27.236Z,58.87
2023-11-22T18:47:53.869Z,58.68
2023-11-22T18:50:21.593Z,58.32
2023-11-22T18:52:48.431Z,58.44
2023-11-22T18:55:15.061Z,58.84
2023-11-22T18:57:41.717Z,59.17
2023-11-22T19:00:08.454Z,59.56
2023-11-22T19:02:35.236Z,58.96
2023-11-22T19:05:01.887Z,61.66
2023-11-22T19:07:28.465Z,60.39
2023-11-22T19:09:55.446Z,58.67
2023-11-22T19:12:22.343Z,59.49
2023-11-22T19:14:49.138Z,60.09
2023-11-22T19:17:15.808Z,58.96
2023-11-22T19:19:42.420Z,58.27
2023-11-22T19:22:09.076Z,58.28
2023-11-22T19:24:35.686Z,57.47
2023-11-22T19:27:02.361Z,57.22
2023-11-22T19:29:29.002Z,57.19
2023-11-22T19:31:55.716Z,56.81
2023-11-22T19:34:22.316Z,56.46
2023-11-22T19:36:48.970Z,56.69
2023-11-22T19:39:15.737Z,56.67
2023-11-22T19:41:44.717Z,56.89
2023-11-22T19:44:11.302Z,57.19
2023-11-22T19:46:40.044Z,57.62
2023-11-22T19:49:07.936Z,56.45
2023-11-22T19:51:35.057Z,57.37
2023-11-22T19:54:01.725Z,57.28
2023-11-22T19:56:28.639Z,58.04
2023-11-22T19:58:55.519Z,57.31
2023-11-22T20:01:22.158Z,58.42
2023-11-22T20:03:48.897Z,59.57
2023-11-22T20:06:15.623Z,59.95
2023-11-22T20:08:42.375Z,59.24
2023-11-22T20:11:09.021Z,59.47
2023-11-22T20:13:35.720Z,58.78
2023-11-22T20:16:02.334Z,58.52
2023-11-22T20:18:29.108Z,58.74
2023-11-22T20:20:55.844Z,58.02
2023-11-22T20:23:22.578Z,58.68
2023-11-22T20:25:49.220Z,59.80
2023-11-22T20:28:18.720Z,59.78
2023-11-22T20:30:45.288Z,59.65
2023-11-22T20:33:12.044Z,58.88
2023-11-22T20:35:40.081Z,59.85
2023-11-22T20:38:07.264Z,58.99
2023-11-22T20:40:33.901Z,60.32
2023-11-22T20:43:00.697Z,59.32
2023-11-22T20:45:27.316Z,59.09
2023-11-22T20:47:53.931Z,58.76
2023-11-22T20:50:20.627Z,58.02
2023-11-22T20:52:47.208Z,58.00
2023-11-22T20:55:13.895Z,57.45
2023-11-22T20:57:41.015Z,57.64
2023-11-22T21:00:07.724Z,57.82
2023-11-22T21:02:36.637Z,57.77
2023-11-22T21:05:04.952Z,56.80
2023-11-22T21:07:31.506Z,56.52
2023-11-22T21:09:58.155Z,56.69
2023-11-22T21:12:24.895Z,57.86
2023-11-22T21:14:51.547Z,56.91
2023-11-22T21:17:18.192Z,57.20
2023-11-22T21:19:44.786Z,58.94
2023-11-22T21:22:11.344Z,60.07
2023-11-22T21:24:37.934Z,57.96
2023-11-22T21:27:04.616Z,58.71
2023-11-22T21:29:31.349Z,59.19
2023-11-22T21:31:58.032Z,58.08
2023-11-22T21:34:24.655Z,58.23
2023-11-22T21:36:51.262Z,57.57
2023-11-22T21:39:17.911Z,58.08
2023-11-22T21:41:44.560Z,58.41
2023-11-22T21:44:11.126Z,58.24
2023-11-22T21:46:37.711Z,58.96
2023-11-22T21:49:04.437Z,58.87
2023-11-22T21:51:31.062Z,58.93
2023-11-22T21:53:57.719Z,56.96
2023-11-22T21:56:24.346Z,57.62
2023-11-22T21:58:50.946Z,56.43
2023-11-22T22:01:17.567Z,57.26
2023-11-22T22:03:44.242Z,57.00
2023-11-22T22:06:11.010Z,56.28
2023-11-22T22:08:37.866Z,56.35
2023-11-22T22:11:04.554Z,56.27
2023-11-22T22:13:31.256Z,55.64
2023-11-22T22:15:57.883Z,56.27
2023-11-22T22:18:27.575Z,55.66
2023-11-22T22:20:56.226Z,56.09
2023-11-22T22:23:23.037Z,55.79
2023-11-22T22:25:49.613Z,55.70
2023-11-22T22:28:16.242Z,55.07
2023-11-22T22:30:42.946Z,56.10
2023-11-22T22:33:09.719Z,56.11
2023-11-22T22:35:36.433Z,56.61
2023-11-22T22:38:03.170Z,55.63
2023-11-22T22:40:29.778Z,55.98
2023-11-22T22:42:56.523Z,55.94
2023-11-22T22:45:23.125Z,56.06
2023-11-22T22:47:50.207Z,55.96
2023-11-22T22:50:17.322Z,55.67
2023-11-22T22:52:44.162Z,55.78
2023-11-22T22:55:10.717Z,56.13
2023-11-22T22:57:37.344Z,56.07
2023-11-22T23:00:03.984Z,56.07
2023-11-22T23:02:30.711Z,56.05
2023-11-22T23:04:57.355Z,55.75
2023-11-22T23:07:23.937Z,56.54
2023-11-22T23:09:50.590Z,56.33
2023-11-22T23:12:17.219Z,56.48
2023-11-22T23:14:43.934Z,57.08
2023-11-22T23:17:10.604Z,56.26
2023-11-22T23:19:37.216Z,56.13
2023-11-22T23:22:03.996Z,55.96
2023-11-22T23:24:30.657Z,56.40
2023-11-22T23:26:58.596Z,55.68
2023-11-22T23:29:25.303Z,55.64
2023-11-22T23:31:51.892Z,55.83
2023-11-22T23:34:18.519Z,56.45
2023-11-22T23:36:45.091Z,56.78
2023-11-22T23:39:11.743Z,57.14
2023-11-22T23:41:38.428Z,57.80
2023-11-22T23:44:05.017Z,56.68
2023-11-22T23:46:31.698Z,56.13
2023-11-22T23:48:58.338Z,55.89
2023-11-22T23:51:24.931Z,55.59
2023-11-22T23:53:51.627Z,55.59
2023-11-22T23:56:18.475Z,54.71
2023-11-22T23:58:45.229Z,55.42
